createdAt,value
2023-04-01T00:04:44.629Z,100.00
2023-04-01T00:14:47.047Z,100.00
2023-04-01T00:24:49.480Z,100.00
2023-04-01T00:34:53.075Z,100.00
2023-04-01T00:44:56.828Z,100.00
2023-04-01T00:55:03.289Z,100.00
2023-04-01T01:05:06.775Z,100.00
2023-04-01T01:15:31.735Z,100.00
2023-04-01T01:25:46.944Z,100.00
2023-04-01T01:35:57.052Z,100.00
2023-04-01T01:46:03.013Z,100.00
2023-04-01T01:56:06.413Z,100.00
2023-04-01T02:06:12.251Z,100.00
2023-04-01T02:16:33.923Z,100.00
2023-04-01T02:26:36.721Z,100.00
2023-04-01T02:36:39.884Z,100.00
2023-04-01T02:46:42.664Z,100.00
2023-04-01T02:56:45.352Z,100.00
2023-04-01T03:06:47.807Z,100.00
2023-04-01T03:16:50.176Z,100.00
2023-04-01T03:26:52.513Z,100.00
2023-04-01T03:36:55.925Z,100.00
2023-04-01T03:46:58.418Z,100.00
2023-04-01T03:57:00.902Z,100.00
2023-04-01T04:07:03.356Z,100.00
2023-04-01T04:17:05.761Z,100.00
2023-04-01T04:27:08.086Z,100.00
2023-04-01T04:37:10.607Z,100.00
2023-04-01T04:47:13.048Z,100.00
2023-04-01T04:57:15.878Z,100.00
2023-04-01T05:07:18.322Z,100.00
2023-04-01T05:17:20.774Z,100.00
2023-04-01T05:27:23.489Z,100.00
2023-04-01T05:37:25.928Z,100.00
2023-04-01T05:47:28.247Z,100.00
2023-04-01T05:57:30.715Z,100.00
2023-04-01T06:07:33.115Z,100.00
2023-04-01T06:18:02.297Z,100.00
2023-04-01T06:28:23.473Z,100.00
2023-04-01T06:38:43.626Z,100.00
2023-04-01T06:49:19.815Z,100.00
2023-04-01T06:59:28.280Z,100.00
2023-04-01T07:09:38.350Z,100.00
2023-04-01T07:19:49.470Z,100.00
2023-04-01T07:29:52.449Z,100.00
2023-04-01T07:39:57.704Z,100.00
2023-04-01T07:50:12.741Z,100.00
2023-04-01T08:00:37.211Z,100.00
2023-04-01T08:10:52.005Z,100.00
2023-04-01T08:21:02.104Z,100.00
2023-04-01T08:31:12.110Z,100.00
2023-04-01T08:41:32.362Z,100.00
2023-04-01T08:51:54.504Z,100.00
2023-04-01T09:02:25.313Z,100.00
2023-04-01T09:12:53.182Z,100.00
2023-04-01T09:23:07.642Z,100.00
2023-04-01T09:33:50.260Z,100.00
2023-04-01T09:44:05.097Z,100.00
2023-04-01T09:54:26.238Z,100.00
2023-04-01T10:04:46.962Z,100.00
2023-04-01T10:15:03.811Z,100.00
2023-04-01T10:25:43.644Z,100.00
2023-04-01T10:36:05.161Z,100.00
2023-04-01T10:46:56.921Z,100.00
2023-04-01T10:57:09.182Z,100.00
2023-04-01T11:08:06.138Z,100.00
2023-04-01T11:19:04.244Z,100.00
2023-04-01T11:29:25.480Z,100.00
2023-04-01T11:40:20.586Z,100.00
2023-04-01T11:50:43.008Z,100.00
2023-04-01T12:00:59.340Z,100.00
2023-04-01T12:11:07.689Z,98.83
2023-04-01T12:21:36.670Z,81.58
2023-04-01T12:31:53.362Z,79.46
2023-04-01T12:42:25.491Z,93.03
2023-04-01T12:52:51.490Z,83.50
2023-04-01T13:03:02.985Z,83.25
2023-04-01T13:13:30.484Z,90.03
2023-04-01T13:24:02.201Z,100.00
2023-04-01T13:34:37.844Z,100.00
2023-04-01T13:45:04.138Z,100.00
2023-04-01T13:55:33.414Z,100.00
2023-04-01T14:05:55.086Z,100.00
2023-04-01T14:16:12.286Z,97.16
2023-04-01T14:26:36.472Z,95.98
2023-04-01T14:36:54.433Z,77.24
2023-04-01T14:47:00.734Z,76.45
2023-04-01T14:57:16.557Z,77.24
2023-04-01T15:07:57.406Z,87.04
2023-04-01T15:18:51.690Z,83.00
2023-04-01T15:29:16.391Z,81.97
2023-04-01T15:39:39.288Z,80.56
2023-04-01T15:49:52.914Z,74.62
2023-04-01T16:00:19.505Z,84.15
2023-04-01T16:10:47.067Z,75.79
2023-04-01T16:21:04.236Z,73.04
2023-04-01T16:31:30.762Z,86.88
2023-04-01T16:41:38.450Z,86.25
2023-04-01T16:51:58.263Z,85.25
2023-04-01T17:02:15.559Z,95.50
2023-04-01T17:12:53.974Z,99.24
2023-04-01T17:23:42.218Z,100.00
2023-04-01T17:33:48.289Z,100.00
2023-04-01T17:44:10.172Z,100.00
2023-04-01T17:54:30.975Z,100.00
2023-04-01T18:05:22.386Z,100.00
2023-04-01T18:15:39.157Z,100.00
2023-04-01T18:25:47.661Z,100.00
2023-04-01T18:36:12.866Z,100.00
2023-04-01T18:46:23.825Z,100.00
2023-04-01T18:56:43.398Z,100.00
2023-04-01T19:06:58.546Z,100.00
2023-04-01T19:17:15.980Z,100.00
2023-04-01T19:27:44.243Z,100.00
2023-04-01T19:37:56.045Z,100.00
2023-04-01T19:48:27.228Z,100.00
2023-04-01T19:58:37.784Z,100.00
2023-04-01T20:08:52.648Z,100.00
2023-04-01T20:19:04.147Z,100.00
2023-04-01T20:29:48.589Z,100.00
2023-04-01T20:40:04.391Z,100.00
2023-04-01T20:50:21.939Z,100.00
2023-04-01T21:01:02.021Z,100.00
2023-04-01T21:11:27.784Z,100.00
2023-04-01T21:22:03.125Z,100.00
2023-04-01T21:32:08.689Z,100.00
2023-04-01T21:42:36.792Z,100.00
2023-04-01T21:53:16.926Z,100.00
2023-04-01T22:03:31.848Z,100.00
2023-04-01T22:13:45.973Z,100.00
2023-04-01T22:23:54.475Z,100.00
2023-04-01T22:34:01.650Z,100.00
2023-04-01T22:44:04.563Z,100.00
2023-04-01T22:54:35.302Z,100.00
2023-04-01T23:04:42.766Z,100.00
2023-04-01T23:14:52.506Z,100.00
2023-04-01T23:25:05.545Z,100.00
2023-04-01T23:35:18.781Z,100.00
2023-04-01T23:45:22.794Z,100.00
2023-04-01T23:55:29.565Z,100.00
